Time;durP1;ratioP1;P1;durP2;ratioP2;P2;SDS_P1;SDS_P2;PMS_P1;PMS_P2;Temp;Humidity;BMP_temperature;BMP_pressure;BME280_temperature;BME280_humidity;BME280_pressure;Samples;Min_cycle;Max_cycle;Signal;HPM_P1;HPM_P2
2022/12/05 00:01:42;;;;;;;31.48;14.80;;;;;;;;;;5044339;28;20040;-85
2022/12/05 00:04:10;;;;;;;29.17;15.98;;;;;;;;;;5064005;28;20032;-86
2022/12/05 00:06:37;;;;;;;31.83;16.42;;;;;;;;;;5064594;28;20048;-85
2022/12/05 00:09:03;;;;;;;27.38;13.80;;;;;;;;;;5064819;28;20025;-85
2022/12/05 00:11:31;;;;;;;25.95;15.00;;;;;;;;;;5060802;28;20071;-83
2022/12/05 00:13:58;;;;;;;31.08;16.17;;;;;;;;;;5054442;28;20032;-86
2022/12/05 00:16:25;;;;;;;28.65;14.45;;;;;;;;;;5057337;28;20032;-87
2022/12/05 00:18:51;;;;;;;33.03;16.10;;;;;;;;;;5048646;28;20408;-83
2022/12/05 00:21:19;;;;;;;33.00;14.63;;;;;;;;;;5045505;28;20025;-86
2022/12/05 00:23:45;;;;;;;30.70;15.27;;;;;;;;;;5055752;28;20200;-85
2022/12/05 00:26:11;;;;;;;29.73;15.60;;;;;;;;;;5060474;28;20053;-86
2022/12/05 00:28:38;;;;;;;36.05;17.33;;;;;;;;;;5046090;28;20030;-85
2022/12/05 00:31:05;;;;;;;30.77;15.85;;;;;;;;;;5050858;28;20025;-85
2022/12/05 00:33:31;;;;;;;26.35;14.55;;;;;;;;;;5058570;28;20057;-85
2022/12/05 00:36:04;;;;;;;30.02;16.33;;;;;;;;;;5045665;28;20052;-84
2022/12/05 00:38:30;;;;;;;33.50;15.85;;;;;;;;;;5047062;28;20021;-86
2022/12/05 00:41:01;;;;;;;30.10;14.13;;;;;;;;;;5046083;28;20021;-84
2022/12/05 00:43:27;;;;;;;29.98;15.80;;;;;;;;;;5045757;28;20365;-87
2022/12/05 00:45:53;;;;;;;30.75;15.85;;;;;;;;;;5044529;28;20038;-86
2022/12/05 00:48:19;;;;;;;31.35;15.63;;;;;;;;;;5060860;28;20072;-86
2022/12/05 00:50:45;;;;;;;29.02;13.77;;;;;;;;;;5060596;28;20029;-84
2022/12/05 00:53:11;;;;;;;29.65;15.32;;;;;;;;;;5053943;28;20035;-84
2022/12/05 00:55:37;;;;;;;29.30;15.27;;;;;;;;;;5067377;28;20076;-85
2022/12/05 00:58:03;;;;;;;29.65;15.18;;;;;;;;;;5047406;28;20029;-83
2022/12/05 01:00:29;;;;;;;33.17;17.00;;;;;;;;;;5047766;28;20029;-83
2022/12/05 01:02:55;;;;;;;34.08;15.63;;;;;;;;;;5046418;28;20037;-85
2022/12/05 01:05:21;;;;;;;31.33;15.68;;;;;;;;;;5064997;28;20029;-86
2022/12/05 01:07:47;;;;;;;31.75;15.52;;;;;;;;;;5055776;28;20049;-85
2022/12/05 01:10:13;;;;;;;29.80;14.15;;;;;;;;;;5045355;28;20440;-85
2022/12/05 01:12:39;;;;;;;27.77;15.40;;;;;;;;;;5042927;28;20045;-81
2022/12/05 01:15:05;;;;;;;29.00;15.80;;;;;;;;;;5041885;28;20029;-85
2022/12/05 01:17:34;;;;;;;31.60;15.73;;;;;;;;;;5043119;28;20029;-86
2022/12/05 01:20:00;;;;;;;31.15;15.90;;;;;;;;;;5044771;28;20027;-83
2022/12/05 01:22:26;;;;;;;33.42;16.27;;;;;;;;;;5049127;28;20022;-82
2022/12/05 01:24:52;;;;;;;30.15;15.23;;;;;;;;;;5052158;28;20510;-85
2022/12/05 01:27:18;;;;;;;28.40;14.23;;;;;;;;;;5047380;28;20030;-85
2022/12/05 01:29:44;;;;;;;30.40;15.50;;;;;;;;;;5069863;28;20117;-84
2022/12/05 01:32:10;;;;;;;26.73;13.25;;;;;;;;;;5068663;28;20047;-84
2022/12/05 01:34:36;;;;;;;28.67;14.63;;;;;;;;;;5060679;28;20075;-84
2022/12/05 01:37:02;;;;;;;29.48;14.63;;;;;;;;;;5063906;28;20092;-85
2022/12/05 01:39:28;;;;;;;25.80;13.27;;;;;;;;;;5050968;28;20024;-86
2022/12/05 01:41:54;;;;;;;27.60;14.57;;;;;;;;;;5065239;28;20033;-85
2022/12/05 01:44:23;;;;;;;27.50;14.13;;;;;;;;;;5055560;28;20029;-85
2022/12/05 01:46:50;;;;;;;31.02;14.75;;;;;;;;;;5063198;28;20564;-86
2022/12/05 01:49:22;;;;;;;25.50;14.38;;;;;;;;;;5065138;28;20170;-85
2022/12/05 01:52:14;;;;;;;22.50;12.25;;;;;;;;;;5063400;28;20024;-85
2022/12/05 01:54:41;;;;;;;24.20;13.40;;;;;;;;;;5040996;28;20046;-86
2022/12/05 01:57:10;;;;;;;25.70;14.45;;;;;;;;;;5057829;28;20036;-84
2022/12/05 01:59:38;;;;;;;28.60;13.50;;;;;;;;;;5061912;28;20030;-85
2022/12/05 02:02:04;;;;;;;24.08;15.15;;;;;;;;;;5047467;28;20086;-83
2022/12/05 02:04:30;;;;;;;30.67;14.48;;;;;;;;;;5050399;28;20034;-83
2022/12/05 02:06:56;;;;;;;24.40;12.45;;;;;;;;;;5047418;28;20030;-85
2022/12/05 02:09:23;;;;;;;26.00;13.65;;;;;;;;;;5062721;28;20029;-87
2022/12/05 02:11:52;;;;;;;23.17;12.70;;;;;;;;;;5064651;28;20058;-85
2022/12/05 02:14:29;;;;;;;24.48;13.23;;;;;;;;;;5066700;28;20090;-85
2022/12/05 02:16:55;;;;;;;23.45;13.40;;;;;;;;;;5062275;28;20021;-84
2022/12/05 02:19:30;;;;;;;20.70;11.88;;;;;;;;;;5056381;28;20068;-84
2022/12/05 02:22:15;;;;;;;21.55;11.55;;;;;;;;;;5061211;28;20031;-86
2022/12/05 02:25:04;;;;;;;21.30;12.10;;;;;;;;;;5059346;28;20033;-83
2022/12/05 02:27:49;;;;;;;21.77;11.25;;;;;;;;;;5033804;28;20033;-84
2022/12/05 02:30:19;;;;;;;21.70;11.00;;;;;;;;;;5051198;28;20025;-83
2022/12/05 02:32:52;;;;;;;22.63;12.63;;;;;;;;;;5061577;28;20055;-85
2022/12/05 02:35:18;;;;;;;21.83;11.57;;;;;;;;;;5063182;28;20028;-84
2022/12/05 02:38:04;;;;;;;18.38;11.65;;;;;;;;;;5042541;28;20025;-83
2022/12/05 02:40:36;;;;;;;18.25;10.32;;;;;;;;;;5044100;28;20029;-85
2022/12/05 02:43:16;;;;;;;18.23;10.48;;;;;;;;;;5048049;28;20079;-85
2022/12/05 02:45:44;;;;;;;19.73;11.07;;;;;;;;;;5047333;28;20037;-86
2022/12/05 02:48:12;;;;;;;19.23;11.60;;;;;;;;;;5052555;28;20033;-83
2022/12/05 02:50:39;;;;;;;19.35;10.52;;;;;;;;;;5046192;28;20576;-83
2022/12/05 02:53:08;;;;;;;20.85;11.52;;;;;;;;;;5043958;28;20045;-85
2022/12/05 02:55:35;;;;;;;20.27;11.38;;;;;;;;;;5043695;28;20033;-85
2022/12/05 02:58:03;;;;;;;17.98;10.38;;;;;;;;;;5044602;28;20025;-84
2022/12/05 03:00:29;;;;;;;19.58;9.80;;;;;;;;;;5061643;28;20036;-86
2022/12/05 03:02:59;;;;;;;22.35;12.25;;;;;;;;;;5061809;28;20056;-83
2022/12/05 03:05:37;;;;;;;19.20;12.05;;;;;;;;;;5058172;28;20415;-84
2022/12/05 03:08:05;;;;;;;18.85;9.50;;;;;;;;;;5053237;28;20052;-83
2022/12/05 03:10:33;;;;;;;22.27;11.45;;;;;;;;;;5061296;28;20037;-84
2022/12/05 03:13:06;;;;;;;19.40;10.68;;;;;;;;;;5061853;28;20040;-85
2022/12/05 03:15:37;;;;;;;16.25;9.18;;;;;;;;;;5043615;28;20029;-84
2022/12/05 03:18:05;;;;;;;18.42;9.60;;;;;;;;;;5040997;28;20079;-84
2022/12/05 03:20:36;;;;;;;17.30;9.73;;;;;;;;;;5047061;28;20147;-83
2022/12/05 03:23:13;;;;;;;20.52;10.13;;;;;;;;;;5043809;28;20479;-83
2022/12/05 03:25:58;;;;;;;20.95;11.15;;;;;;;;;;5043616;28;20373;-86
2022/12/05 03:28:30;;;;;;;21.45;10.85;;;;;;;;;;5040980;28;20476;-84
2022/12/05 03:30:58;;;;;;;17.15;10.20;;;;;;;;;;5042908;28;20025;-85
2022/12/05 03:33:27;;;;;;;17.88;10.73;;;;;;;;;;5049070;28;20029;-86
2022/12/05 03:36:00;;;;;;;20.70;11.88;;;;;;;;;;5052342;28;20033;-83
2022/12/05 03:38:39;;;;;;;16.35;9.45;;;;;;;;;;5044393;28;20057;-86
2022/12/05 03:41:11;;;;;;;15.25;9.23;;;;;;;;;;5054040;28;20025;-84
2022/12/05 03:43:54;;;;;;;19.17;10.02;;;;;;;;;;5050318;28;20018;-82
2022/12/05 03:46:23;;;;;;;17.67;10.38;;;;;;;;;;5064674;28;20068;-86
2022/12/05 03:49:02;;;;;;;17.33;9.50;;;;;;;;;;5062139;28;20036;-86
2022/12/05 03:51:32;;;;;;;18.67;9.68;;;;;;;;;;5044483;28;20109;-84
2022/12/05 03:54:05;;;;;;;17.10;9.10;;;;;;;;;;5049466;28;20033;-85
2022/12/05 03:56:36;;;;;;;17.15;9.85;;;;;;;;;;5067454;28;20383;-84
2022/12/05 03:59:12;;;;;;;18.35;9.38;;;;;;;;;;5062721;28;20044;-84
2022/12/05 04:01:39;;;;;;;20.30;10.82;;;;;;;;;;5067269;28;20320;-84
2022/12/05 04:04:09;;;;;;;17.40;9.68;;;;;;;;;;5049856;28;20061;-87
2022/12/05 04:06:37;;;;;;;18.20;9.80;;;;;;;;;;5043264;28;20029;-85
2022/12/05 04:09:12;;;;;;;18.65;10.75;;;;;;;;;;5053316;28;20033;-85
2022/12/05 04:11:40;;;;;;;19.27;11.18;;;;;;;;;;5049854;28;20105;-85
2022/12/05 04:14:10;;;;;;;20.88;10.10;;;;;;;;;;5047271;28;20025;-85
2022/12/05 04:21:36;;;;;;;18.50;9.57;;;;;;;;;;5046468;28;20045;-85
2022/12/05 04:22:17;;;;;;;20.27;9.88;;;;;;;;;;5046477;28;20040;-82
2022/12/05 04:27:45;;;;;;;16.55;10.02;;;;;;;;;;5051028;28;20677;-84
2022/12/05 04:30:16;;;;;;;19.83;9.93;;;;;;;;;;5046530;28;20029;-86
2022/12/05 04:32:51;;;;;;;20.50;9.48;;;;;;;;;;5051092;28;20033;-84
2022/12/05 04:35:21;;;;;;;17.98;9.82;;;;;;;;;;5057928;28;20040;-85
2022/12/05 04:37:50;;;;;;;16.38;9.25;;;;;;;;;;5065756;28;20021;-84
2022/12/05 04:40:21;;;;;;;18.27;9.55;;;;;;;;;;5068671;28;20028;-85
2022/12/05 04:42:48;;;;;;;18.65;10.27;;;;;;;;;;5066068;28;20017;-84
2022/12/05 04:45:15;;;;;;;17.52;9.48;;;;;;;;;;5050302;28;20045;-86
2022/12/05 04:47:44;;;;;;;19.60;9.85;;;;;;;;;;5046505;28;20037;-83
2022/12/05 04:50:11;;;;;;;20.27;10.05;;;;;;;;;;5058070;28;20021;-86
2022/12/05 04:52:38;;;;;;;21.85;10.75;;;;;;;;;;5044790;28;20029;-86
2022/12/05 04:55:16;;;;;;;21.52;11.63;;;;;;;;;;5043500;28;20085;-85
2022/12/05 04:57:49;;;;;;;21.60;11.07;;;;;;;;;;5056372;28;20067;-83
2022/12/05 05:00:16;;;;;;;19.38;10.57;;;;;;;;;;5046836;28;20028;-82
2022/12/05 05:02:44;;;;;;;20.65;10.85;;;;;;;;;;5059492;28;20036;-83
2022/12/05 05:05:11;;;;;;;18.75;10.30;;;;;;;;;;5048193;28;20032;-85
2022/12/05 05:07:48;;;;;;;21.65;10.57;;;;;;;;;;5057609;28;20037;-85
2022/12/05 05:10:15;;;;;;;18.67;10.25;;;;;;;;;;5054021;28;20029;-83
2022/12/05 05:12:41;;;;;;;18.90;9.50;;;;;;;;;;5069340;28;20039;-85
2022/12/05 05:15:07;;;;;;;21.83;11.00;;;;;;;;;;5066952;28;20037;-85
2022/12/05 05:17:33;;;;;;;21.38;10.85;;;;;;;;;;5061325;28;20032;-86
2022/12/05 05:20:42;;;;;;;19.88;9.88;;;;;;;;;;5042391;28;20112;-85
2022/12/05 05:22:49;;;;;;;20.67;11.55;;;;;;;;;;5040085;28;20435;-87
2022/12/05 05:25:15;;;;;;;18.80;10.05;;;;;;;;;;5054073;28;20039;-84
2022/12/05 05:27:41;;;;;;;18.58;11.00;;;;;;;;;;5058806;28;20041;-86
2022/12/05 05:30:08;;;;;;;24.25;12.70;;;;;;;;;;5053872;28;20534;-85
2022/12/05 05:32:34;;;;;;;22.25;11.18;;;;;;;;;;5046528;28;20029;-85
2022/12/05 05:35:00;;;;;;;21.55;11.45;;;;;;;;;;5049630;28;20023;-86
2022/12/05 05:37:26;;;;;;;22.70;13.05;;;;;;;;;;5046906;28;20046;-85
2022/12/05 05:39:52;;;;;;;23.10;12.07;;;;;;;;;;5049778;28;20044;-85
2022/12/05 05:42:18;;;;;;;19.48;11.70;;;;;;;;;;5049373;28;20026;-85
2022/12/05 05:44:44;;;;;;;21.47;11.57;;;;;;;;;;5006778;28;1140188;-86
2022/12/05 05:47:10;;;;;;;25.23;12.82;;;;;;;;;;5045889;28;20022;-84
2022/12/05 05:49:36;;;;;;;21.33;10.23;;;;;;;;;;5058465;28;20092;-85
2022/12/05 05:52:03;;;;;;;20.05;12.02;;;;;;;;;;5064845;28;20025;-85
2022/12/05 05:54:29;;;;;;;23.10;11.32;;;;;;;;;;5045279;28;20202;-83
2022/12/05 05:56:55;;;;;;;21.05;11.70;;;;;;;;;;5044115;28;20021;-83
2022/12/05 05:59:21;;;;;;;19.52;10.35;;;;;;;;;;5056670;28;20029;-86
2022/12/05 06:01:47;;;;;;;19.77;11.70;;;;;;;;;;5052266;28;20498;-84
2022/12/05 06:04:13;;;;;;;23.58;12.10;;;;;;;;;;5056165;28;20037;-85
2022/12/05 06:06:39;;;;;;;22.42;12.43;;;;;;;;;;5045637;28;20009;-83
2022/12/05 06:09:06;;;;;;;18.02;10.45;;;;;;;;;;5045896;28;20432;-85
2022/12/05 06:11:32;;;;;;;23.73;12.38;;;;;;;;;;5061899;28;20040;-84
2022/12/05 06:14:02;;;;;;;20.98;10.57;;;;;;;;;;5059589;28;20022;-87
2022/12/05 06:16:29;;;;;;;23.25;11.63;;;;;;;;;;5060297;28;20032;-84
2022/12/05 06:18:55;;;;;;;22.88;11.70;;;;;;;;;;5047513;28;20026;-84
2022/12/05 06:21:21;;;;;;;22.23;12.40;;;;;;;;;;5044419;28;20025;-84
2022/12/05 06:23:47;;;;;;;19.63;11.32;;;;;;;;;;5052956;28;20433;-83
2022/12/05 06:26:15;;;;;;;20.77;11.18;;;;;;;;;;5056719;28;20116;-84
2022/12/05 06:28:41;;;;;;;21.27;11.02;;;;;;;;;;5045283;28;20025;-84
2022/12/05 06:31:18;;;;;;;20.73;10.10;;;;;;;;;;5065844;28;20063;-83
2022/12/05 06:33:44;;;;;;;23.00;11.45;;;;;;;;;;5061671;28;20035;-85
2022/12/05 06:36:12;;;;;;;24.58;13.00;;;;;;;;;;5049658;28;20021;-86
2022/12/05 06:38:38;;;;;;;26.90;13.30;;;;;;;;;;5046344;28;20108;-84
2022/12/05 06:41:05;;;;;;;25.10;11.82;;;;;;;;;;5050318;28;20061;-85
2022/12/05 06:43:31;;;;;;;23.25;11.57;;;;;;;;;;5048241;28;20614;-86
2022/12/05 06:45:57;;;;;;;24.40;11.35;;;;;;;;;;5048691;28;20053;-83
2022/12/05 06:48:23;;;;;;;23.75;12.73;;;;;;;;;;5048495;28;20036;-86
2022/12/05 06:50:52;;;;;;;22.77;11.60;;;;;;;;;;5056192;28;20021;-85
2022/12/05 06:53:19;;;;;;;26.20;12.48;;;;;;;;;;5061558;28;20028;-85
2022/12/05 06:55:54;;;;;;;21.70;11.38;;;;;;;;;;5055410;28;20079;-85
2022/12/05 06:58:20;;;;;;;25.13;11.40;;;;;;;;;;5044582;28;20017;-84
2022/12/05 07:03:31;;;;;;;26.05;11.80;;;;;;;;;;5047409;28;20399;-86
2022/12/05 07:05:59;;;;;;;21.60;12.32;;;;;;;;;;5047543;28;20041;-86
2022/12/05 07:08:25;;;;;;;28.08;13.15;;;;;;;;;;5062355;28;20021;-86
2022/12/05 07:10:52;;;;;;;20.50;12.02;;;;;;;;;;5060918;28;20703;-82
2022/12/05 07:13:18;;;;;;;24.63;11.20;;;;;;;;;;5050540;28;20029;-82
2022/12/05 07:15:46;;;;;;;26.27;13.25;;;;;;;;;;5045547;28;20030;-82
2022/12/05 07:18:12;;;;;;;26.83;12.50;;;;;;;;;;5047705;28;20044;-82
2022/12/05 07:20:38;;;;;;;25.05;12.88;;;;;;;;;;5043809;28;20041;-84
2022/12/05 07:23:04;;;;;;;29.50;13.40;;;;;;;;;;5062257;28;20483;-84
2022/12/05 07:25:30;;;;;;;24.10;11.68;;;;;;;;;;5045580;28;20025;-84
2022/12/05 07:27:56;;;;;;;29.63;13.63;;;;;;;;;;5056352;28;20422;-83
2022/12/05 07:30:22;;;;;;;27.40;13.77;;;;;;;;;;5066481;28;20032;-84
2022/12/05 07:32:48;;;;;;;24.05;11.73;;;;;;;;;;5063908;28;20082;-86
2022/12/05 07:35:15;;;;;;;27.80;13.18;;;;;;;;;;5065245;28;20025;-85
2022/12/05 07:37:41;;;;;;;22.38;11.57;;;;;;;;;;5068034;28;20025;-82
2022/12/05 07:40:07;;;;;;;24.73;11.93;;;;;;;;;;5068169;28;20041;-84
2022/12/05 07:42:33;;;;;;;20.42;11.73;;;;;;;;;;5055702;28;20021;-83
2022/12/05 07:44:59;;;;;;;21.05;11.35;;;;;;;;;;5047347;28;20495;-84
2022/12/05 07:47:25;;;;;;;24.08;12.35;;;;;;;;;;5046628;28;20039;-83
2022/12/05 07:49:51;;;;;;;26.05;12.68;;;;;;;;;;5046764;28;20030;-82
2022/12/05 07:52:17;;;;;;;26.85;13.15;;;;;;;;;;5045594;28;20022;-86
2022/12/05 07:54:43;;;;;;;25.02;12.38;;;;;;;;;;5045257;28;20100;-85
2022/12/05 07:57:09;;;;;;;26.55;12.80;;;;;;;;;;5044299;28;20026;-83
2022/12/05 07:59:35;;;;;;;31.02;13.77;;;;;;;;;;5044023;28;20076;-83
2022/12/05 08:02:01;;;;;;;33.95;13.20;;;;;;;;;;5044509;28;20027;-82
2022/12/05 08:04:27;;;;;;;25.50;11.70;;;;;;;;;;5043775;28;20021;-85
2022/12/05 08:06:53;;;;;;;26.45;13.50;;;;;;;;;;5060844;28;20056;-84
2022/12/05 08:09:19;;;;;;;25.20;13.73;;;;;;;;;;5063979;28;20028;-84
2022/12/05 08:11:46;;;;;;;28.00;15.50;;;;;;;;;;5057488;28;20120;-85
2022/12/05 08:14:12;;;;;;;22.50;12.75;;;;;;;;;;5043741;28;20060;-84
2022/12/05 08:16:38;;;;;;;28.83;13.32;;;;;;;;;;5055178;28;20060;-83
2022/12/05 08:19:05;;;;;;;26.08;13.90;;;;;;;;;;5063387;28;20025;-85
2022/12/05 08:21:32;;;;;;;31.67;14.48;;;;;;;;;;5065477;28;20447;-82
2022/12/05 08:23:58;;;;;;;28.20;14.70;;;;;;;;;;5064736;28;20017;-82
2022/12/05 08:26:28;;;;;;;27.75;12.73;;;;;;;;;;5055911;28;20029;-83
2022/12/05 08:28:55;;;;;;;27.02;13.07;;;;;;;;;;5045342;28;20029;-85
2022/12/05 08:31:23;;;;;;;31.17;13.70;;;;;;;;;;5043739;28;20021;-84
2022/12/05 08:33:50;;;;;;;26.40;12.95;;;;;;;;;;5042962;28;20115;-85
2022/12/05 08:36:17;;;;;;;33.15;14.13;;;;;;;;;;5055411;28;20071;-82
2022/12/05 08:38:43;;;;;;;28.75;13.23;;;;;;;;;;5046873;28;20092;-84
2022/12/05 08:41:11;;;;;;;30.30;13.73;;;;;;;;;;5047738;28;20045;-83
2022/12/05 08:43:37;;;;;;;26.20;14.00;;;;;;;;;;5046717;28;20133;-84
2022/12/05 08:46:03;;;;;;;30.17;13.13;;;;;;;;;;5062395;28;20096;-84
2022/12/05 08:48:30;;;;;;;21.77;12.07;;;;;;;;;;5074756;28;20013;-83
2022/12/05 08:50:57;;;;;;;28.65;14.32;;;;;;;;;;5074955;28;20025;-82
2022/12/05 08:53:23;;;;;;;25.67;13.30;;;;;;;;;;5073349;28;20092;-84
2022/12/05 08:55:48;;;;;;;30.45;13.60;;;;;;;;;;5060747;28;20029;-85
2022/12/05 08:58:14;;;;;;;22.38;13.38;;;;;;;;;;5056943;28;20070;-84
2022/12/05 09:00:41;;;;;;;27.30;13.75;;;;;;;;;;5050307;28;20018;-83
2022/12/05 09:03:08;;;;;;;27.20;13.10;;;;;;;;;;5062261;28;20119;-84
2022/12/05 09:05:34;;;;;;;28.13;13.02;;;;;;;;;;5048455;28;20087;-85
2022/12/05 09:08:00;;;;;;;20.17;11.65;;;;;;;;;;5046811;28;20026;-85
2022/12/05 09:10:26;;;;;;;24.83;13.13;;;;;;;;;;5047751;28;20076;-83
2022/12/05 09:12:53;;;;;;;26.30;12.05;;;;;;;;;;5063553;28;20033;-85
2022/12/05 09:15:19;;;;;;;22.20;10.55;;;;;;;;;;5066303;28;20033;-84
2022/12/05 09:17:45;;;;;;;25.95;12.93;;;;;;;;;;5067728;28;20031;-83
2022/12/05 09:20:12;;;;;;;24.88;13.15;;;;;;;;;;5072787;28;20187;-83
2022/12/05 09:22:38;;;;;;;23.60;12.93;;;;;;;;;;5056445;28;20029;-85
2022/12/05 09:25:05;;;;;;;24.02;13.85;;;;;;;;;;5056334;28;20059;-83
2022/12/05 09:27:31;;;;;;;30.48;13.48;;;;;;;;;;5063989;28;20064;-86
2022/12/05 09:29:57;;;;;;;24.83;12.60;;;;;;;;;;5064806;28;20140;-85
2022/12/05 09:32:23;;;;;;;28.13;13.85;;;;;;;;;;5065367;28;20078;-83
2022/12/05 09:34:49;;;;;;;27.05;13.02;;;;;;;;;;5072410;28;20422;-82
2022/12/05 09:37:17;;;;;;;23.55;12.38;;;;;;;;;;5064744;28;20067;-85
2022/12/05 09:39:43;;;;;;;26.27;13.65;;;;;;;;;;5060895;28;20022;-84
2022/12/05 09:42:17;;;;;;;22.85;11.88;;;;;;;;;;5050861;28;20033;-85
2022/12/05 09:44:56;;;;;;;31.20;14.90;;;;;;;;;;5058642;28;20136;-82
2022/12/05 09:47:40;;;;;;;25.40;12.90;;;;;;;;;;5052974;28;20068;-84
2022/12/05 09:50:26;;;;;;;23.92;12.38;;;;;;;;;;5055075;28;20033;-87
2022/12/05 09:53:04;;;;;;;27.83;12.68;;;;;;;;;;5055360;28;20086;-85
2022/12/05 09:55:46;;;;;;;28.15;14.18;;;;;;;;;;5054496;28;20022;-86
2022/12/05 09:58:20;;;;;;;23.80;12.75;;;;;;;;;;5051830;28;20021;-84
2022/12/05 10:00:47;;;;;;;23.50;13.10;;;;;;;;;;5074980;28;20025;-86
2022/12/05 10:03:37;;;;;;;25.50;13.20;;;;;;;;;;5063552;28;20025;-83
2022/12/05 10:06:13;;;;;;;29.50;14.98;;;;;;;;;;5047796;28;20067;-83
2022/12/05 10:08:52;;;;;;;25.10;14.20;;;;;;;;;;5045250;28;20037;-85
2022/12/05 10:11:23;;;;;;;32.92;14.10;;;;;;;;;;5043738;28;20026;-84
2022/12/05 10:13:57;;;;;;;29.50;13.70;;;;;;;;;;5061966;28;20434;-84
2022/12/05 10:16:32;;;;;;;26.90;13.15;;;;;;;;;;5059060;28;20021;-82
2022/12/05 10:19:00;;;;;;;30.50;13.95;;;;;;;;;;5060735;28;20345;-85
2022/12/05 10:21:36;;;;;;;25.25;14.73;;;;;;;;;;5048609;28;20391;-83
2022/12/05 10:24:03;;;;;;;27.45;14.27;;;;;;;;;;5081508;28;20066;-85
2022/12/05 10:26:32;;;;;;;28.90;13.00;;;;;;;;;;5067110;28;20017;-84
2022/12/05 10:29:07;;;;;;;29.35;14.27;;;;;;;;;;5049940;28;20029;-83
2022/12/05 10:31:34;;;;;;;31.83;14.63;;;;;;;;;;5056303;28;20017;-86
2022/12/05 10:34:26;;;;;;;30.77;13.45;;;;;;;;;;5063687;28;20050;-85
2022/12/05 10:36:58;;;;;;;24.92;14.07;;;;;;;;;;5041434;28;20057;-83
2022/12/05 10:39:24;;;;;;;31.08;15.23;;;;;;;;;;5035480;28;20021;-81
2022/12/05 10:41:50;;;;;;;29.27;13.63;;;;;;;;;;5038242;28;20020;-84
2022/12/05 10:44:16;;;;;;;29.55;15.98;;;;;;;;;;5056280;28;20031;-82
2022/12/05 10:46:42;;;;;;;33.60;14.60;;;;;;;;;;5053117;28;20426;-82
2022/12/05 10:49:10;;;;;;;28.05;12.95;;;;;;;;;;5040620;28;20151;-83
2022/12/05 10:51:40;;;;;;;29.55;14.48;;;;;;;;;;5042052;28;20028;-83
2022/12/05 10:54:14;;;;;;;32.28;14.15;;;;;;;;;;5054853;28;20029;-83
2022/12/05 10:56:45;;;;;;;31.33;14.93;;;;;;;;;;5050015;28;20032;-82
2022/12/05 10:59:13;;;;;;;36.30;14.75;;;;;;;;;;5051914;28;20542;-82
2022/12/05 11:01:43;;;;;;;27.80;14.70;;;;;;;;;;5042078;28;20036;-83
2022/12/05 11:04:26;;;;;;;28.00;13.77;;;;;;;;;;5041718;28;20829;-83
2022/12/05 11:06:56;;;;;;;29.85;14.23;;;;;;;;;;5041355;28;20029;-86
2022/12/05 11:09:26;;;;;;;28.73;14.32;;;;;;;;;;5040835;28;20026;-83
2022/12/05 11:12:08;;;;;;;37.28;17.98;;;;;;;;;;5040129;28;20036;-84
2022/12/05 11:14:35;;;;;;;25.58;15.43;;;;;;;;;;5050383;28;20105;-83
2022/12/05 11:17:02;;;;;;;29.70;14.70;;;;;;;;;;5040350;28;20113;-85
2022/12/05 11:19:28;;;;;;;30.00;14.13;;;;;;;;;;5051202;28;20025;-84
2022/12/05 11:21:55;;;;;;;34.33;15.18;;;;;;;;;;5056396;28;20085;-84
2022/12/05 11:24:30;;;;;;;32.10;16.25;;;;;;;;;;5040132;28;20032;-84
2022/12/05 11:26:57;;;;;;;29.92;14.43;;;;;;;;;;5041631;28;20475;-82
2022/12/05 11:29:28;;;;;;;32.00;15.27;;;;;;;;;;5047689;28;20107;-83
2022/12/05 11:31:54;;;;;;;33.00;14.95;;;;;;;;;;5042896;28;20132;-86
2022/12/05 11:34:22;;;;;;;35.00;14.82;;;;;;;;;;5055995;28;20048;-84
2022/12/05 11:36:54;;;;;;;34.70;15.35;;;;;;;;;;5042057;28;20049;-84
2022/12/05 11:39:20;;;;;;;34.63;16.38;;;;;;;;;;5045547;28;20059;-85
2022/12/05 11:41:52;;;;;;;35.78;14.07;;;;;;;;;;5059749;28;20032;-83
2022/12/05 11:44:39;;;;;;;35.58;15.93;;;;;;;;;;5062265;28;20498;-83
2022/12/05 11:47:32;;;;;;;31.75;15.32;;;;;;;;;;5058786;28;20064;-84
2022/12/05 11:50:04;;;;;;;34.22;14.98;;;;;;;;;;5049261;28;20037;-82
2022/12/05 11:52:49;;;;;;;34.65;14.98;;;;;;;;;;5059738;28;20028;-84
2022/12/05 11:55:24;;;;;;;34.17;17.10;;;;;;;;;;5061413;28;20032;-85
2022/12/05 11:58:24;;;;;;;32.53;16.67;;;;;;;;;;5059318;28;20013;-82
2022/12/05 12:00:53;;;;;;;34.50;15.93;;;;;;;;;;5003293;28;20033;-85
2022/12/05 12:03:19;;;;;;;32.22;16.80;;;;;;;;;;5060406;28;20025;-84
2022/12/05 12:06:03;;;;;;;38.40;17.52;;;;;;;;;;5060403;28;20029;-83
2022/12/05 12:08:38;;;;;;;35.10;15.48;;;;;;;;;;5057911;28;20028;-83
2022/12/05 12:11:10;;;;;;;36.42;16.05;;;;;;;;;;5059641;28;20033;-83
2022/12/05 12:13:53;;;;;;;34.13;16.00;;;;;;;;;;5060408;28;20029;-83
2022/12/05 12:16:31;;;;;;;34.88;16.20;;;;;;;;;;5050776;28;20018;-82
2022/12/05 12:19:14;;;;;;;40.53;18.05;;;;;;;;;;5044141;28;20039;-84
2022/12/05 12:21:58;;;;;;;40.95;16.92;;;;;;;;;;5063902;28;20036;-83
2022/12/05 12:24:25;;;;;;;32.45;15.75;;;;;;;;;;5064054;28;20487;-84
2022/12/05 12:26:57;;;;;;;41.97;18.20;;;;;;;;;;5058922;28;20051;-85
2022/12/05 12:29:42;;;;;;;35.55;15.07;;;;;;;;;;5042604;28;20033;-82
2022/12/05 12:32:11;;;;;;;40.70;17.63;;;;;;;;;;5043163;28;20034;-83
2022/12/05 12:34:53;;;;;;;37.90;17.98;;;;;;;;;;5044703;28;20491;-82
2022/12/05 12:37:30;;;;;;;34.47;15.85;;;;;;;;;;5043239;28;20041;-82
2022/12/05 12:40:00;;;;;;;36.00;17.13;;;;;;;;;;5041931;28;20025;-83
2022/12/05 12:42:47;;;;;;;39.65;16.20;;;;;;;;;;5043433;28;20029;-85
2022/12/05 12:45:19;;;;;;;40.95;18.77;;;;;;;;;;5042350;28;20103;-84
2022/12/05 12:47:45;;;;;;;;;;;;;;;;;;5062735;28;20052;-82
2022/12/05 12:50:21;;;;;;;34.72;15.40;;;;;;;;;;5062242;28;20363;-84
2022/12/05 12:53:11;;;;;;;39.67;16.92;;;;;;;;;;5062558;28;20071;-83
2022/12/05 12:55:53;;;;;;;37.90;16.50;;;;;;;;;;5061775;28;20028;-84
2022/12/05 12:58:37;;;;;;;36.33;14.98;;;;;;;;;;5064731;28;20021;-82
2022/12/05 13:01:21;;;;;;;33.65;15.70;;;;;;;;;;5050890;28;20100;-83
2022/12/05 13:03:55;;;;;;;39.20;15.70;;;;;;;;;;5045477;28;20025;-82
2022/12/05 13:06:42;;;;;;;43.15;17.52;;;;;;;;;;5053962;28;20013;-83
2022/12/05 13:09:16;;;;;;;36.10;16.52;;;;;;;;;;5064314;28;20029;-84
2022/12/05 13:11:42;;;;;;;38.70;17.10;;;;;;;;;;5042053;28;20044;-84
2022/12/05 13:14:11;;;;;;;39.05;18.05;;;;;;;;;;5044590;28;20021;-83
2022/12/05 13:16:40;;;;;;;39.03;20.35;;;;;;;;;;5062988;28;20032;-83
2022/12/05 13:19:06;;;;;;;43.88;17.80;;;;;;;;;;5065964;28;20021;-82
2022/12/05 13:21:33;;;;;;;41.53;17.60;;;;;;;;;;5065212;28;20056;-85
2022/12/05 13:24:02;;;;;;;39.35;17.10;;;;;;;;;;5070625;28;20025;-82
2022/12/05 13:26:28;;;;;;;43.60;18.05;;;;;;;;;;5054815;28;20021;-84
2022/12/05 13:28:56;;;;;;;41.88;18.08;;;;;;;;;;5046870;28;20017;-83
2022/12/05 13:31:39;;;;;;;45.40;18.02;;;;;;;;;;5066034;28;20037;-83
2022/12/05 13:34:05;;;;;;;36.50;17.67;;;;;;;;;;5065463;28;20031;-83
2022/12/05 13:42:23;;;;;;;39.70;18.10;;;;;;;;;;5042770;28;20028;-83
2022/12/05 13:44:49;;;;;;;39.97;17.55;;;;;;;;;;5043521;28;20079;-83
2022/12/05 13:47:30;;;;;;;47.97;19.58;;;;;;;;;;5040110;28;20025;-85
2022/12/05 13:50:02;;;;;;;41.58;19.15;;;;;;;;;;5059799;28;20499;-82
2022/12/05 13:52:32;;;;;;;44.72;18.67;;;;;;;;;;5054234;28;20032;-82
2022/12/05 13:55:05;;;;;;;37.80;16.27;;;;;;;;;;5055370;28;20032;-82
2022/12/05 13:57:31;;;;;;;;;;;;;;;;;;5056515;28;20036;-83
2022/12/05 14:00:03;;;;;;;39.97;15.88;;;;;;;;;;5045649;28;19905;-82
2022/12/05 14:02:42;;;;;;;49.38;18.88;;;;;;;;;;5036306;28;20026;-82
2022/12/05 14:05:20;;;;;;;41.65;16.70;;;;;;;;;;5037866;28;20151;-83
2022/12/05 14:07:47;;;;;;;40.63;19.30;;;;;;;;;;5049290;28;20437;-83
2022/12/05 14:10:20;;;;;;;45.67;16.92;;;;;;;;;;5049458;28;20063;-81
2022/12/05 14:12:49;;;;;;;48.17;19.35;;;;;;;;;;5039771;28;20029;-83
2022/12/05 14:15:25;;;;;;;44.30;20.25;;;;;;;;;;5064285;28;20089;-83
2022/12/05 14:17:56;;;;;;;46.75;19.10;;;;;;;;;;5056397;28;20455;-82
2022/12/05 14:20:27;;;;;;;47.72;20.77;;;;;;;;;;5054155;28;20040;-85
2022/12/05 14:22:56;;;;;;;46.58;20.45;;;;;;;;;;5054370;28;20021;-81
2022/12/05 14:25:45;;;;;;;55.05;22.40;;;;;;;;;;5042497;28;20506;-82
2022/12/05 14:28:14;;;;;;;45.67;20.45;;;;;;;;;;5039522;28;20048;-82
2022/12/05 14:30:59;;;;;;;48.08;19.42;;;;;;;;;;5035612;28;20025;-84
2022/12/05 14:33:25;;;;;;;43.53;19.98;;;;;;;;;;5037449;28;20100;-83
2022/12/05 14:35:52;;;;;;;45.88;18.45;;;;;;;;;;5054932;28;20029;-84
2022/12/05 14:38:20;;;;;;;44.53;19.27;;;;;;;;;;5053383;28;20021;-82
2022/12/05 14:40:46;;;;;;;49.45;20.92;;;;;;;;;;5053987;28;20021;-83
2022/12/05 14:43:16;;;;;;;39.05;19.30;;;;;;;;;;5052130;28;20028;-84
2022/12/05 14:45:55;;;;;;;44.55;17.27;;;;;;;;;;5050952;28;20384;-82
2022/12/05 14:48:31;;;;;;;46.88;20.30;;;;;;;;;;5054045;28;20029;-82
2022/12/05 14:50:57;;;;;;;42.55;19.02;;;;;;;;;;5035259;28;20112;-82